Time;durP1;ratioP1;P1;durP2;ratioP2;P2;SDS_P1;SDS_P2;PMS_P1;PMS_P2;Temp;Humidity;BMP_temperature;BMP_pressure;BME280_temperature;BME280_humidity;BME280_pressure;Samples;Min_cycle;Max_cycle;Signal;HPM_P1;HPM_P2
2023/06/12 00:01:23;;;;;;;9.93;7.10;;;;;;;18.30;81.99;96440.69;5027617;28;20216;-68
2023/06/12 00:03:50;;;;;;;9.83;7.07;;;;;;;18.17;82.27;96451.41;5027778;28;20784;-73
2023/06/12 00:06:17;;;;;;;8.23;7.10;;;;;;;18.14;82.88;96450.81;5027741;28;20208;-73
2023/06/12 00:08:44;;;;;;;10.53;7.50;;;;;;;18.22;82.85;96450.97;5027726;28;20215;-65
2023/06/12 00:11:16;;;;;;;9.80;6.90;;;;;;;18.25;82.27;96454.19;5028169;28;20242;-66
2023/06/12 00:13:47;;;;;;;13.17;7.60;;;;;;;17.94;83.55;96457.75;5028230;28;20204;-65
2023/06/12 00:16:17;;;;;;;10.63;7.27;;;;;;;17.63;85.07;96454.25;5029850;28;20234;-72
2023/06/12 00:18:45;;;;;;;10.63;8.17;;;;;;;17.60;86.60;96445.78;5028574;28;20203;-73
2023/06/12 00:21:15;;;;;;;9.13;7.90;;;;;;;17.95;85.01;96446.28;5030199;28;20708;-73
2023/06/12 00:23:42;;;;;;;11.73;8.03;;;;;;;18.09;83.72;96445.16;5028411;28;20744;-66
2023/06/12 00:26:09;;;;;;;17.87;9.33;;;;;;;17.70;84.20;96451.97;5026837;28;20221;-69
2023/06/12 00:28:40;;;;;;;11.57;7.60;;;;;;;17.58;84.58;96429.38;5027954;28;20208;-72
2023/06/12 00:31:07;;;;;;;8.37;7.30;;;;;;;17.74;83.47;96448.13;5027320;28;20766;-78
2023/06/12 00:33:36;;;;;;;11.47;7.37;;;;;;;17.95;82.96;96451.53;5026580;28;20207;-78
2023/06/12 00:36:03;;;;;;;8.97;7.57;;;;;;;18.05;83.13;96451.59;5026960;28;20205;-76
2023/06/12 00:38:32;;;;;;;12.37;8.00;;;;;;;18.18;82.34;96447.81;5026835;28;20191;-74
2023/06/12 00:40:59;;;;;;;9.77;7.30;;;;;;;18.24;81.87;96451.69;5026380;28;20205;-77
2023/06/12 00:43:26;;;;;;;9.50;7.13;;;;;;;18.34;81.33;96452.59;5038795;28;20644;-76
2023/06/12 00:45:54;;;;;;;9.30;7.27;;;;;;;18.31;81.56;96451.03;5029025;28;20273;-65
2023/06/12 00:48:21;;;;;;;9.37;7.13;;;;;;;18.37;80.37;96452.31;5029262;28;20195;-73
2023/06/12 00:50:49;;;;;;;11.23;7.27;;;;;;;18.21;80.82;96444.09;5029481;28;20215;-67
2023/06/12 00:53:16;;;;;;;14.83;7.87;;;;;;;17.85;81.52;96448.03;5046621;28;20203;-70
2023/06/12 00:55:43;;;;;;;13.87;7.87;;;;;;;17.44;83.01;96459.31;5047179;28;20234;-65
2023/06/12 00:58:11;;;;;;;9.43;7.13;;;;;;;17.18;84.33;96454.53;5029130;28;20199;-65
2023/06/12 01:00:40;;;;;;;12.47;8.47;;;;;;;16.97;85.64;96457.94;5046882;28;20302;-65
2023/06/12 01:03:13;;;;;;;12.63;8.70;;;;;;;16.92;85.76;96449.63;5046689;28;20297;-65
2023/06/12 01:05:45;;;;;;;10.80;8.83;;;;;;;16.90;85.68;96455.91;5046733;28;20772;-74
2023/06/12 01:08:21;;;;;;;13.87;9.50;;;;;;;16.76;86.99;96457.03;5029520;28;20217;-66
2023/06/12 01:11:12;;;;;;;10.57;9.47;;;;;;;16.96;86.39;96456.25;5046452;28;20224;-65
2023/06/12 01:13:40;;;;;;;10.73;9.10;;;;;;;16.95;86.26;96443.31;5028759;28;20220;-66
2023/06/12 01:16:07;;;;;;;10.17;8.37;;;;;;;16.94;85.95;96459.94;5046727;28;20233;-68
2023/06/12 01:18:34;;;;;;;11.67;9.20;;;;;;;16.99;86.46;96461.25;5046122;28;20588;-66
2023/06/12 01:21:12;;;;;;;12.63;8.73;;;;;;;16.90;86.15;96455.91;5029087;28;20198;-66
2023/06/12 01:24:26;;;;;;;12.60;9.87;;;;;;;16.86;86.40;96460.56;5028104;28;20219;-69
2023/06/12 01:27:18;;;;;;;12.23;9.77;;;;;;;16.87;86.12;96457.00;5028776;28;20290;-68
2023/06/12 01:30:09;;;;;;;11.40;9.40;;;;;;;16.87;86.26;96462.25;5029162;28;20198;-69
2023/06/12 01:32:39;;;;;;;11.27;9.93;;;;;;;17.13;85.24;96451.44;5028144;28;20590;-72
2023/06/12 01:35:16;;;;;;;10.50;9.23;;;;;;;17.40;84.14;96464.91;5046669;28;20202;-76
2023/06/12 01:37:53;;;;;;;10.53;8.63;;;;;;;17.47;83.24;96472.16;5028996;28;20298;-72
2023/06/12 01:40:26;;;;;;;11.90;8.27;;;;;;;17.48;82.90;96467.72;5050122;28;20234;-70
2023/06/12 01:42:54;;;;;;;9.60;8.60;;;;;;;17.62;82.48;96478.75;5033007;28;20681;-70
2023/06/12 01:45:23;;;;;;;11.50;8.57;;;;;;;17.60;82.45;96462.34;5032119;28;20309;-65
2023/06/12 01:47:50;;;;;;;11.90;8.73;;;;;;;17.73;81.87;96464.78;5032744;28;20237;-64
2023/06/12 01:50:20;;;;;;;10.30;9.20;;;;;;;17.62;82.42;96465.66;5032460;28;20297;-65
2023/06/12 01:52:49;;;;;;;11.77;8.60;;;;;;;17.50;82.82;96458.00;5032356;28;20210;-66
2023/06/12 01:55:19;;;;;;;12.53;9.00;;;;;;;17.33;83.13;96459.34;5032655;28;20223;-65
2023/06/12 01:57:50;;;;;;;10.97;8.43;;;;;;;17.35;83.40;96456.63;5031767;28;20207;-67
2023/06/12 02:00:23;;;;;;;10.03;8.47;;;;;;;17.56;82.58;96476.66;5032744;28;20245;-69
2023/06/12 02:02:55;;;;;;;15.70;9.17;;;;;;;17.40;82.95;96470.97;5032160;28;20207;-66
2023/06/12 02:05:30;;;;;;;8.83;7.93;;;;;;;17.11;84.43;96469.91;5032133;28;20239;-67
2023/06/12 02:07:57;;;;;;;10.93;9.10;;;;;;;16.95;85.13;96465.09;5032348;28;20377;-66
2023/06/12 02:10:24;;;;;;;9.30;8.20;;;;;;;16.98;84.80;96462.19;5032067;28;20212;-67
2023/06/12 02:12:52;;;;;;;13.23;9.07;;;;;;;16.56;86.87;96456.94;5050490;28;20602;-65
2023/06/12 02:15:20;;;;;;;13.83;8.80;;;;;;;16.30;87.07;96419.72;5031673;28;20199;-68
2023/06/12 02:17:47;;;;;;;13.97;9.27;;;;;;;16.39;88.05;96454.78;5032387;28;20637;-65
2023/06/12 02:20:16;;;;;;;11.30;8.70;;;;;;;16.43;88.55;96453.59;5031668;28;20210;-65
2023/06/12 02:22:43;;;;;;;13.23;8.63;;;;;;;16.58;87.47;96463.72;5049483;28;20206;-65
2023/06/12 02:25:10;;;;;;;9.93;8.37;;;;;;;16.73;87.10;96462.50;5049188;28;20234;-67
2023/06/12 02:27:37;;;;;;;10.10;8.43;;;;;;;16.82;86.15;96453.09;5031777;28;20260;-67
2023/06/12 02:30:05;;;;;;;10.30;8.37;;;;;;;16.99;85.47;96450.81;5031871;28;20289;-66
2023/06/12 02:32:36;;;;;;;9.70;7.90;;;;;;;17.19;84.25;96459.63;5031241;28;20712;-67
2023/06/12 02:35:08;;;;;;;10.70;7.70;;;;;;;17.36;82.82;96463.50;5029326;28;20214;-67
2023/06/12 02:37:36;;;;;;;9.60;7.40;;;;;;;17.42;82.21;96474.31;5011754;28;20256;-67
2023/06/12 02:40:04;;;;;;;11.93;8.30;;;;;;;17.18;83.02;96457.16;5011868;28;20211;-67
2023/06/12 02:42:32;;;;;;;8.73;7.43;;;;;;;17.21;84.11;96481.28;5011794;28;20591;-67
2023/06/12 02:44:59;;;;;;;13.40;7.37;;;;;;;17.22;83.50;96477.72;5011350;28;20717;-66
2023/06/12 02:47:31;;;;;;;8.70;7.17;;;;;;;17.30;83.76;96477.94;5012304;28;20228;-68
2023/06/12 02:49:58;;;;;;;12.77;7.50;;;;;;;17.43;82.80;96477.75;5010753;28;20206;-67
2023/06/12 02:52:34;;;;;;;14.40;7.57;;;;;;;17.47;81.36;96480.00;5011801;28;20227;-69
2023/06/12 02:55:01;;;;;;;14.00;6.97;;;;;;;17.46;81.10;96486.19;5011342;28;20212;-66
2023/06/12 02:57:30;;;;;;;9.67;6.97;;;;;;;17.44;81.05;96488.09;5011529;28;20245;-66
2023/06/12 02:59:57;;;;;;;9.00;7.03;;;;;;;17.36;81.38;96490.50;5029215;28;20211;-66
2023/06/12 03:02:31;;;;;;;9.43;7.07;;;;;;;17.43;81.42;96491.69;4994832;28;20306;-66
2023/06/12 03:04:59;;;;;;;8.17;7.23;;;;;;;17.60;80.52;96483.28;5029294;28;20293;-66
2023/06/12 03:07:28;;;;;;;8.70;7.43;;;;;;;17.62;80.07;96485.81;5011248;28;20234;-65
2023/06/12 03:09:56;;;;;;;8.03;6.63;;;;;;;17.36;81.51;96492.28;5011659;28;20298;-65
2023/06/12 03:12:22;;;;;;;10.07;7.30;;;;;;;17.36;82.03;96490.50;5028690;28;20611;-67
2023/06/12 03:14:53;;;;;;;9.53;7.20;;;;;;;17.53;81.49;96492.63;5028918;28;20208;-71
2023/06/12 03:17:20;;;;;;;10.57;7.50;;;;;;;17.50;81.47;96492.03;5023569;28;21456;-66
2023/06/12 03:19:48;;;;;;;14.53;8.33;;;;;;;17.61;81.11;96499.84;5028495;28;20204;-66
2023/06/12 03:22:15;;;;;;;17.37;8.33;;;;;;;17.49;81.30;96506.94;5029164;28;20246;-67
2023/06/12 03:24:43;;;;;;;12.63;8.57;;;;;;;17.18;82.06;96506.88;5010591;28;20830;-65
2023/06/12 03:27:11;;;;;;;10.17;7.33;;;;;;;16.86;83.98;96504.19;5011497;28;20604;-66
2023/06/12 03:29:38;;;;;;;15.07;7.30;;;;;;;16.40;84.95;96459.91;5028558;28;20205;-66
2023/06/12 03:32:06;;;;;;;8.10;7.20;;;;;;;16.46;86.29;96505.63;5028507;28;20285;-67
2023/06/12 03:34:39;;;;;;;8.03;6.87;;;;;;;16.22;86.70;96474.38;5004951;28;20226;-70
2023/06/12 03:37:08;;;;;;;9.90;7.47;;;;;;;16.57;86.07;96485.56;4992855;28;20226;-67
2023/06/12 03:39:35;;;;;;;9.80;7.47;;;;;;;16.76;85.10;96498.88;5007716;28;20662;-69
2023/06/12 03:42:03;;;;;;;10.23;7.07;;;;;;;16.82;84.30;96503.63;5008282;28;20699;-66
2023/06/12 03:44:42;;;;;;;10.17;6.90;;;;;;;17.00;83.79;96510.00;5004401;28;20226;-71
2023/06/12 03:47:11;;;;;;;11.27;6.90;;;;;;;17.18;83.39;96512.94;5027827;28;20322;-70
2023/06/12 03:49:40;;;;;;;11.80;7.50;;;;;;;17.26;82.64;96514.94;5005294;28;20245;-66
2023/06/12 03:52:08;;;;;;;10.40;6.80;;;;;;;17.48;81.98;96509.63;4990803;28;20705;-68
2023/06/12 03:54:36;;;;;;;8.53;7.00;;;;;;;17.31;82.74;96513.59;4990556;28;20204;-66
2023/06/12 03:57:03;;;;;;;9.13;6.93;;;;;;;17.37;82.78;96520.16;5008662;28;20235;-67
2023/06/12 03:59:31;;;;;;;7.03;6.13;;;;;;;17.86;81.04;96517.81;4990182;28;20205;-68
2023/06/12 04:01:58;;;;;;;10.87;7.17;;;;;;;18.07;80.28;96512.59;4989917;28;20221;-66
2023/06/12 04:04:26;;;;;;;7.40;6.67;;;;;;;18.34;79.35;96516.31;4990270;28;20233;-66
2023/06/12 04:06:53;;;;;;;9.63;6.07;;;;;;;18.49;78.82;96514.22;5007722;28;20708;-66
2023/06/12 04:09:21;;;;;;;11.63;6.10;;;;;;;18.58;77.59;96516.06;5007596;28;20213;-67
2023/06/12 04:11:48;;;;;;;11.40;6.70;;;;;;;18.69;76.83;96515.97;5017079;28;20672;-66
2023/06/12 04:14:15;;;;;;;6.93;6.10;;;;;;;19.45;74.23;96510.91;5018480;28;20201;-67
2023/06/12 04:16:42;;;;;;;8.17;5.93;;;;;;;19.91;71.74;96518.09;5016367;28;20294;-70
2023/06/12 04:19:09;;;;;;;7.90;5.73;;;;;;;19.36;73.47;96527.50;5012572;28;20313;-67
2023/06/12 04:21:36;;;;;;;9.27;6.90;;;;;;;19.05;75.18;96527.66;4990122;28;20222;-68
2023/06/12 04:24:05;;;;;;;13.57;6.73;;;;;;;19.36;74.54;96511.75;5008048;28;20207;-76
2023/06/12 04:26:34;;;;;;;10.00;7.80;;;;;;;19.83;72.85;96519.75;4990092;28;20583;-77
2023/06/12 04:29:02;;;;;;;9.60;7.47;;;;;;;19.76;72.83;96511.63;4989984;28;20238;-68
2023/06/12 04:31:30;;;;;;;15.67;7.73;;;;;;;20.24;71.80;96516.81;5018579;28;20268;-71
2023/06/12 04:33:58;;;;;;;9.67;6.20;;;;;;;20.70;69.40;96516.84;4982924;28;20214;-73
2023/06/12 04:36:27;;;;;;;7.90;5.93;;;;;;;20.75;68.66;96516.41;5015418;28;20298;-68
2023/06/12 04:38:56;;;;;;;8.37;5.97;;;;;;;20.72;67.19;96514.03;5005796;28;20239;-68
2023/06/12 04:41:24;;;;;;;9.80;6.23;;;;;;;20.43;68.03;96508.88;4990132;28;20207;-66
2023/06/12 04:43:58;;;;;;;7.67;6.23;;;;;;;20.83;66.54;96514.72;4989670;28;20231;-68
2023/06/12 04:46:30;;;;;;;7.07;5.83;;;;;;;21.51;64.03;96513.34;4988929;28;20263;-66
2023/06/12 04:48:57;;;;;;;8.20;5.00;;;;;;;21.99;62.47;96525.34;5007675;28;20577;-66
2023/06/12 04:51:24;;;;;;;5.70;5.10;;;;;;;22.10;61.44;96523.28;5006866;28;20260;-67
2023/06/12 04:53:55;;;;;;;7.87;5.43;;;;;;;21.78;62.20;96509.81;4989587;28;20296;-71
2023/06/12 04:56:23;;;;;;;8.93;5.00;;;;;;;21.85;61.27;96522.25;5007051;28;20209;-73
2023/06/12 04:58:51;;;;;;;5.20;4.57;;;;;;;21.75;61.59;96521.47;5002635;28;20289;-78
2023/06/12 05:01:21;;;;;;;5.10;4.60;;;;;;;22.13;60.72;96525.63;5008740;28;20232;-75
2023/06/12 05:03:49;;;;;;;4.90;4.40;;;;;;;22.00;60.70;96534.91;5008732;28;20204;-70
2023/06/12 05:06:17;;;;;;;6.57;4.07;;;;;;;22.12;60.25;96523.13;5008800;28;20723;-68
2023/06/12 05:08:46;;;;;;;7.07;4.10;;;;;;;22.51;59.37;96511.19;5008569;28;20603;-71
2023/06/12 05:11:13;;;;;;;9.20;4.73;;;;;;;22.60;59.13;96528.78;5009946;28;20208;-72
2023/06/12 05:13:41;;;;;;;5.80;4.10;;;;;;;22.93;58.45;96535.03;5008797;28;20297;-71
2023/06/12 05:16:08;;;;;;;5.57;4.30;;;;;;;22.85;58.10;96535.00;5009065;28;21177;-71
2023/06/12 05:18:35;;;;;;;8.73;4.30;;;;;;;22.85;59.75;96535.00;5008845;28;20232;-75
2023/06/12 05:21:03;;;;;;;7.00;4.67;;;;;;;22.96;59.15;96530.25;5008645;28;20217;-69
2023/06/12 05:23:31;;;;;;;5.80;4.33;;;;;;;23.15;58.84;96535.31;5008964;28;20271;-69
2023/06/12 05:25:58;;;;;;;8.27;5.20;;;;;;;23.22;58.85;96536.31;5008337;28;20733;-70
2023/06/12 05:28:25;;;;;;;8.27;4.80;;;;;;;23.29;59.20;96528.56;5009137;28;20203;-73
2023/06/12 05:30:52;;;;;;;9.03;5.07;;;;;;;23.29;58.49;96541.78;5008280;28;20206;-67
2023/06/12 05:33:20;;;;;;;6.53;4.30;;;;;;;23.07;58.69;96537.91;5008722;28;20210;-67
2023/06/12 05:35:49;;;;;;;5.30;4.43;;;;;;;22.59;60.94;96537.66;5026088;28;20273;-73
2023/06/12 05:38:16;;;;;;;41.67;21.30;;;;;;;22.87;60.11;96547.06;5024719;28;20283;-74
2023/06/12 05:40:44;;;;;;;20.00;12.00;;;;;;;22.83;59.56;96542.25;5008618;28;20196;-77
2023/06/12 05:43:12;;;;;;;8.43;5.90;;;;;;;23.25;59.03;96532.50;5007976;28;20679;-69
2023/06/12 05:45:39;;;;;;;8.83;6.13;;;;;;;23.58;58.15;96536.94;5008560;28;20948;-75
2023/06/12 05:48:07;;;;;;;10.20;5.67;;;;;;;23.67;57.40;96549.19;5007869;28;20205;-78
2023/06/12 05:50:35;;;;;;;12.60;6.73;;;;;;;23.36;57.65;96550.75;5008517;28;20274;-73
2023/06/12 05:53:08;;;;;;;11.90;6.73;;;;;;;23.57;58.08;96539.75;4991842;28;20208;-72
2023/06/12 05:55:36;;;;;;;6.63;4.63;;;;;;;23.89;55.68;96545.91;5007916;28;20640;-78
2023/06/12 05:58:04;;;;;;;6.80;3.73;;;;;;;23.50;57.64;96547.50;5008374;28;20206;-77
2023/06/12 06:00:35;;;;;;;14.07;7.87;;;;;;;23.39;57.75;96531.91;5007672;28;20277;-69
2023/06/12 06:03:06;;;;;;;9.40;6.57;;;;;;;23.83;57.54;96546.56;5008809;28;20204;-79
2023/06/12 06:05:34;;;;;;;7.23;4.73;;;;;;;23.93;57.19;96541.09;5025827;28;20891;-76
2023/06/12 06:08:08;;;;;;;12.27;8.67;;;;;;;24.25;55.64;96549.91;5008375;28;20651;-75
2023/06/12 06:10:41;;;;;;;14.47;6.57;;;;;;;24.65;55.04;96538.44;5009356;28;20203;-68
2023/06/12 06:13:08;;;;;;;9.33;5.10;;;;;;;24.75;53.71;96527.72;5025625;28;20299;-76
2023/06/12 06:15:35;;;;;;;8.53;6.00;;;;;;;25.29;52.73;96545.38;5009034;28;20205;-70
2023/06/12 06:18:03;;;;;;;8.43;5.43;;;;;;;25.04;53.09;96543.81;5025279;28;20201;-75
2023/06/12 06:20:30;;;;;;;8.23;5.20;;;;;;;25.06;53.03;96547.13;5008330;28;20210;-67
2023/06/12 06:22:57;;;;;;;10.20;5.43;;;;;;;25.26;53.38;96548.38;5030266;28;20321;-74
2023/06/12 06:25:24;;;;;;;16.30;7.47;;;;;;;25.23;52.51;96503.66;5030661;28;20252;-66
2023/06/12 06:27:51;;;;;;;9.63;5.37;;;;;;;25.71;53.07;96556.47;5048697;28;20208;-67
2023/06/12 06:30:18;;;;;;;10.63;5.83;;;;;;;25.55;52.93;96559.22;5031152;28;20201;-79
2023/06/12 06:32:46;;;;;;;8.10;6.47;;;;;;;25.57;52.94;96564.34;5031355;28;20201;-72
2023/06/12 06:35:15;;;;;;;7.97;5.93;;;;;;;25.74;53.42;96564.06;5048831;28;20211;-76
2023/06/12 06:37:42;;;;;;;9.10;5.50;;;;;;;25.73;53.14;96561.59;5049457;28;20239;-69
2023/06/12 06:40:09;;;;;;;7.43;5.90;;;;;;;25.53;52.46;96552.44;5048464;28;20259;-74
2023/06/12 06:42:37;;;;;;;9.40;5.60;;;;;;;25.27;53.08;96559.78;5030868;28;20611;-66
2023/06/12 06:45:09;;;;;;;9.80;6.33;;;;;;;24.73;56.26;96562.28;5023342;28;20226;-70
2023/06/12 06:47:37;;;;;;;9.13;5.67;;;;;;;24.65;56.74;96559.63;5027099;28;20236;-67
2023/06/12 06:50:06;;;;;;;9.70;5.87;;;;;;;24.53;57.28;96558.34;4997209;28;20198;-66
2023/06/12 06:52:33;;;;;;;6.10;5.20;;;;;;;24.36;56.83;96561.19;5008251;28;20199;-66
2023/06/12 06:55:00;;;;;;;7.60;5.40;;;;;;;23.98;58.73;96563.47;4991461;28;20255;-68
2023/06/12 06:57:30;;;;;;;7.37;5.00;;;;;;;23.96;58.38;96565.44;4990913;28;20591;-69
2023/06/12 06:59:57;;;;;;;6.13;4.80;;;;;;;23.32;60.09;96549.44;5008647;28;20639;-75
2023/06/12 07:02:25;;;;;;;9.23;6.20;;;;;;;23.69;59.72;96554.31;5008153;28;20284;-70
2023/06/12 07:04:53;;;;;;;7.47;6.13;;;;;;;23.96;59.84;96556.66;4974766;28;20726;-68
2023/06/12 07:07:22;;;;;;;8.40;6.00;;;;;;;24.38;58.27;96551.25;4990962;28;20710;-68
2023/06/12 07:09:49;;;;;;;9.47;5.20;;;;;;;24.45;58.38;96566.28;5008314;28;20327;-68
2023/06/12 07:12:16;;;;;;;6.73;6.03;;;;;;;24.50;57.77;96555.19;4991238;28;20728;-68
2023/06/12 07:14:44;;;;;;;8.60;5.03;;;;;;;24.63;57.67;96555.50;4993065;28;20374;-68
2023/06/12 07:17:15;;;;;;;10.10;6.17;;;;;;;24.92;56.73;96569.03;4990754;28;20210;-68
2023/06/12 07:19:42;;;;;;;8.93;5.60;;;;;;;24.20;58.73;96557.53;4990258;28;20289;-68
2023/06/12 07:22:09;;;;;;;6.20;4.80;;;;;;;24.24;59.25;96544.78;5007910;28;20708;-68
2023/06/12 07:24:37;;;;;;;11.30;6.10;;;;;;;24.77;57.53;96557.50;4990462;28;20206;-68
2023/06/12 07:27:04;;;;;;;8.53;5.77;;;;;;;24.53;58.82;96557.50;4990555;28;20288;-70
2023/06/12 07:29:32;;;;;;;14.20;8.47;;;;;;;24.57;58.68;96549.06;5013673;28;20207;-69
2023/06/12 07:32:00;;;;;;;6.93;5.53;;;;;;;24.72;57.75;96544.72;5022187;28;20342;-68
2023/06/12 07:34:27;;;;;;;6.50;5.13;;;;;;;24.82;58.15;96552.50;4984838;28;20248;-71
2023/06/12 07:36:56;;;;;;;16.23;7.60;;;;;;;24.96;58.25;96552.63;4999319;28;20207;-68
2023/06/12 07:39:23;;;;;;;7.17;5.33;;;;;;;25.19;56.97;96547.41;5002189;28;20205;-67
2023/06/12 07:41:51;;;;;;;8.60;5.60;;;;;;;24.33;59.33;96538.50;5006891;28;20211;-70
2023/06/12 07:44:20;;;;;;;12.57;5.70;;;;;;;24.07;59.00;96506.91;4994456;28;20255;-70
2023/06/12 07:46:47;;;;;;;7.97;5.30;;;;;;;24.50;59.56;96544.59;5025082;28;20771;-72
2023/06/12 07:49:16;;;;;;;8.67;5.70;;;;;;;25.04;58.16;96544.66;5009467;28;20211;-66
2023/06/12 07:51:47;;;;;;;7.30;5.17;;;;;;;24.98;57.69;96547.16;5010221;28;20255;-67
2023/06/12 07:54:18;;;;;;;7.03;5.23;;;;;;;25.05;57.71;96540.19;5027338;28;20242;-67
2023/06/12 07:56:46;;;;;;;7.30;5.97;;;;;;;25.40;56.48;96552.97;5009101;28;20254;-71
2023/06/12 07:59:14;;;;;;;10.07;6.77;;;;;;;25.74;56.06;96542.84;4993607;28;20206;-68
2023/06/12 08:01:47;;;;;;;8.20;4.80;;;;;;;25.11;57.84;96539.50;4993797;28;20205;-67
2023/06/12 08:04:17;;;;;;;9.97;7.13;;;;;;;25.32;57.23;96544.22;5009925;28;20205;-67
2023/06/12 08:06:47;;;;;;;7.30;4.90;;;;;;;25.24;56.40;96547.75;5026670;28;20233;-72
2023/06/12 08:09:16;;;;;;;9.00;5.77;;;;;;;25.49;55.97;96549.28;5009030;28;20205;-68
2023/06/12 08:11:45;;;;;;;8.63;5.93;;;;;;;25.44;56.29;96545.50;5008778;28;20276;-68
2023/06/12 08:14:13;;;;;;;7.63;5.30;;;;;;;25.39;57.39;96545.19;4992918;28;20211;-67
2023/06/12 08:16:41;;;;;;;9.70;5.60;;;;;;;24.84;58.33;96550.50;5027085;28;20213;-77
2023/06/12 08:19:09;;;;;;;10.77;6.33;;;;;;;24.89;58.60;96548.19;5008879;28;20228;-68
2023/06/12 08:21:37;;;;;;;6.30;4.90;;;;;;;24.76;59.29;96539.94;5009394;28;20200;-68
2023/06/12 08:24:07;;;;;;;9.93;5.33;;;;;;;24.55;60.48;96529.03;5008678;28;20339;-70
2023/06/12 08:26:35;;;;;;;9.43;5.70;;;;;;;25.22;58.73;96523.22;5007211;28;20701;-70
2023/06/12 08:29:03;;;;;;;6.33;5.60;;;;;;;25.44;57.91;96535.72;5015777;28;20255;-72
2023/06/12 08:31:34;;;;;;;5.77;5.17;;;;;;;25.72;56.37;96526.28;5028963;28;20204;-68
2023/06/12 08:34:01;;;;;;;7.17;5.10;;;;;;;25.63;56.36;96540.59;5045119;28;20197;-78
2023/06/12 08:36:28;;;;;;;7.50;5.57;;;;;;;25.67;56.04;96533.94;5024661;28;20229;-68
2023/06/12 08:38:55;;;;;;;10.27;5.83;;;;;;;26.25;55.17;96530.72;5026389;28;20282;-88
2023/06/12 08:41:25;;;;;;;8.50;4.63;;;;;;;25.00;56.89;96530.09;5027491;28;20567;-83
2023/06/12 08:43:54;;;;;;;6.43;4.50;;;;;;;24.98;56.21;96544.50;5025819;28;20229;-75
2023/06/12 08:46:33;;;;;;;8.60;4.67;;;;;;;25.24;56.50;96536.31;5025389;28;20237;-76
2023/06/12 08:49:00;;;;;;;7.03;5.73;;;;;;;25.35;55.90;96523.47;5039756;28;20224;-74
2023/06/12 08:51:28;;;;;;;7.03;5.53;;;;;;;25.78;55.59;96530.06;5046935;28;20205;-70
2023/06/12 08:53:57;;;;;;;9.03;5.40;;;;;;;26.30;54.16;96532.81;5046185;28;20209;-69
2023/06/12 08:56:25;;;;;;;7.23;3.93;;;;;;;26.56;52.65;96533.25;5046770;28;20214;-68
2023/06/12 08:58:52;;;;;;;7.43;5.13;;;;;;;26.72;52.65;96533.13;5039100;28;20288;-68
2023/06/12 09:01:21;;;;;;;9.03;4.50;;;;;;;27.12;51.40;96524.66;5026086;28;20299;-68
2023/06/12 09:03:51;;;;;;;8.57;4.70;;;;;;;27.12;50.75;96523.88;5026067;28;20576;-73
2023/06/12 09:06:21;;;;;;;11.23;5.00;;;;;;;27.09;51.73;96527.72;5026392;28;20299;-70
2023/06/12 09:08:48;;;;;;;7.40;5.33;;;;;;;26.81;52.27;96526.69;5027286;28;20777;-73
2023/06/12 09:11:15;;;;;;;13.33;5.40;;;;;;;26.61;52.29;96521.06;5046127;28;20293;-77
2023/06/12 09:14:10;;;;;;;7.10;4.60;;;;;;;26.61;52.31;96521.06;5019125;28;20267;-73
2023/06/12 09:16:37;;;;;;;11.60;5.93;;;;;;;26.44;53.06;96514.25;5009064;28;20307;-79
2023/06/12 09:19:06;;;;;;;9.90;5.80;;;;;;;26.40;53.41;96506.81;5039767;28;20208;-72
2023/06/12 09:21:36;;;;;;;6.60;4.80;;;;;;;25.60;54.14;96479.09;5045991;28;20259;-68
2023/06/12 09:24:03;;;;;;;6.50;4.83;;;;;;;25.47;55.58;96500.09;5043364;28;20306;-68
2023/06/12 09:26:30;;;;;;;9.67;6.20;;;;;;;25.83;54.82;96503.81;5045666;28;20233;-69
2023/06/12 09:28:57;;;;;;;7.53;4.70;;;;;;;26.06;54.22;96514.41;5045071;28;20230;-71
2023/06/12 09:31:24;;;;;;;6.70;5.47;;;;;;;25.91;54.40;96509.06;5045767;28;20735;-77
2023/06/12 09:33:54;;;;;;;6.70;4.90;;;;;;;25.92;53.62;96494.81;5045619;28;20297;-68
2023/06/12 09:37:03;;;;;;;6.43;5.10;;;;;;;25.36;55.43;96516.34;5040199;28;20555;-71
2023/06/12 09:40:27;;;;;;;8.07;4.97;;;;;;;24.01;62.45;96510.19;5023620;28;20238;-66
2023/06/12 09:43:47;;;;;;;6.80;5.37;;;;;;;23.49;64.08;96514.13;5025506;28;20209;-69
2023/06/12 09:47:12;;;;;;;8.63;6.57;;;;;;;22.83;68.91;96514.03;5024983;28;20246;-74
2023/06/12 09:49:53;;;;;;;8.27;5.97;;;;;;;22.30;69.96;96516.00;5025465;28;20256;-68
2023/06/12 09:52:22;;;;;;;7.70;6.00;;;;;;;21.90;72.53;96516.53;5026613;28;20208;-69
2023/06/12 09:54:50;;;;;;;7.50;5.60;;;;;;;21.90;73.21;96523.63;5024013;28;20311;-71
2023/06/12 09:57:19;;;;;;;7.70;6.10;;;;;;;21.89;73.94;96509.59;5026126;28;20247;-78
2023/06/12 09:59:47;;;;;;;11.90;6.00;;;;;;;22.15;72.06;96507.84;5028153;28;20203;-79
2023/06/12 10:02:16;;;;;;;6.27;5.60;;;;;;;21.76;73.00;96511.78;5029909;28;20642;-81
2023/06/12 10:05:01;;;;;;;7.73;5.90;;;;;;;21.38;75.05;96509.41;5034138;28;20207;-73
2023/06/12 10:07:40;;;;;;;10.10;6.57;;;;;;;21.46;75.81;96491.88;5049260;28;20241;-81
2023/06/12 10:10:08;;;;;;;9.20;7.40;;;;;;;21.67;73.61;96476.59;5052798;28;20297;-70
2023/06/12 10:12:37;;;;;;;10.83;7.30;;;;;;;21.64;75.03;96484.81;5032084;28;20578;-71
2023/06/12 10:15:05;;;;;;;9.23;6.23;;;;;;;21.51;77.65;96518.63;5049283;28;20217;-71
2023/06/12 10:17:33;;;;;;;9.73;7.03;;;;;;;21.27;80.74;96504.38;5049426;28;20241;-73
2023/06/12 10:20:03;;;;;;;7.83;6.57;;;;;;;21.11;79.20;96505.00;5049722;28;20194;-67
2023/06/12 10:22:30;;;;;;;7.03;6.33;;;;;;;20.92;77.84;96474.31;5050077;28;20210;-68
2023/06/12 10:24:59;;;;;;;6.13;5.53;;;;;;;21.46;74.14;96510.31;5048547;28;20211;-67
2023/06/12 10:27:27;;;;;;;10.17;5.53;;;;;;;21.55;75.51;96500.69;5049379;28;20237;-68
2023/06/12 10:29:56;;;;;;;5.47;3.40;;;;;;;21.31;70.10;96501.28;5049069;28;20240;-67
2023/06/12 10:32:24;;;;;;;7.33;3.13;;;;;;;21.21;70.08;96510.22;5049484;28;20214;-67
2023/06/12 10:34:54;;;;;;;3.23;2.90;;;;;;;21.23;70.87;96518.78;5049003;28;20292;-67
2023/06/12 10:37:22;;;;;;;4.47;2.70;;;;;;;21.31;68.43;96506.53;5048585;28;20208;-68
2023/06/12 10:40:10;;;;;;;2.90;2.17;;;;;;;21.47;62.29;96498.00;5049120;28;20673;-70
2023/06/12 10:42:59;;;;;;;4.87;2.37;;;;;;;21.90;65.60;96503.34;5048800;28;20636;-71
2023/06/12 10:45:31;;;;;;;9.30;5.20;;;;;;;22.38;67.79;96503.69;5049216;28;20208;-81
2023/06/12 10:48:11;;;;;;;5.03;3.07;;;;;;;22.74;67.79;96508.88;5048921;28;20240;-68
2023/06/12 10:50:49;;;;;;;4.83;3.23;;;;;;;22.91;69.89;96505.31;5031035;28;20207;-77
2023/06/12 10:53:20;;;;;;;5.47;4.00;;;;;;;23.01;71.34;96495.44;5049241;28;20206;-69
2023/06/12 10:55:47;;;;;;;6.67;4.03;;;;;;;22.90;72.19;96503.66;5029232;28;20258;-71
2023/06/12 10:58:18;;;;;;;6.93;4.77;;;;;;;22.80;76.76;96495.03;5048346;28;20770;-68
2023/06/12 11:00:51;;;;;;;8.20;6.00;;;;;;;22.96;75.44;96492.44;5048306;28;20676;-69
2023/06/12 11:03:28;;;;;;;7.97;4.97;;;;;;;23.23;75.95;96482.47;5047857;28;20209;-71
2023/06/12 11:06:00;;;;;;;7.33;5.07;;;;;;;23.47;77.29;96475.63;5048535;28;20219;-67
2023/06/12 11:08:29;;;;;;;6.77;4.43;;;;;;;23.52;73.98;96476.78;5047805;28;20858;-68
2023/06/12 11:10:56;;;;;;;8.00;6.00;;;;;;;23.37;73.31;96481.03;5030352;28;20256;-73
2023/06/12 11:13:24;;;;;;;4.00;3.60;;;;;;;23.00;72.15;96485.88;5047913;28;20683;-73
2023/06/12 11:15:53;;;;;;;3.97;3.20;;;;;;;22.80;69.59;96513.50;5048030;28;20202;-69
2023/06/12 11:18:23;;;;;;;4.50;4.10;;;;;;;22.77;70.77;96532.31;5048074;28;20206;-67
2023/06/12 11:20:55;;;;;;;6.33;4.57;;;;;;;22.36;70.13;96539.94;5047660;28;20656;-68
2023/06/12 11:23:24;;;;;;;14.47;9.97;;;;;;;22.20;73.45;96576.78;5048476;28;20205;-69
2023/06/12 11:25:53;;;;;;;19.00;8.30;;;;;;;22.40;74.32;96586.16;5047572;28;20314;-66
2023/06/12 11:28:20;;;;;;;8.50;5.80;;;;;;;22.02;76.01;96585.69;5048188;28;20208;-67
2023/06/12 11:30:48;;;;;;;7.43;5.73;;;;;;;21.97;76.88;96580.84;5047658;28;20284;-68
2023/06/12 11:33:35;;;;;;;8.83;5.33;;;;;;;21.68;77.05;96583.69;5047993;28;20204;-69
2023/06/12 11:36:03;;;;;;;8.97;5.97;;;;;;;21.56;76.73;96592.78;5048371;28;20209;-67
2023/06/12 11:38:30;;;;;;;8.13;6.03;;;;;;;21.31;78.05;96597.94;5047475;28;20199;-68
2023/06/12 11:41:01;;;;;;;9.80;6.20;;;;;;;20.61;80.03;96583.47;5031088;28;20213;-67
2023/06/12 11:43:29;;;;;;;10.70;6.57;;;;;;;19.99;81.26;96612.84;5047501;28;20209;-68
2023/06/12 11:46:02;;;;;;;7.13;5.90;;;;;;;19.57;84.41;96587.81;5047680;28;20234;-67